Weather

Other Local Aerodome WX Info

Adelaide

TAF YPAD 040205Z 0403/0506 23010KT CAVOK FM041000 14008KT CAVOK FM041200 06014KT CAVOK FM042100 32020G30KT 9999 -SHRA NSC FM050100 27025G35KT 9999 -SHRA SCT025 INTER 0421/0501 32030G45KT 5000 SHRA BKN040 INTER 0503/0506 27030G42KT 6000 SHRA BKN025 RMK FM041400 MOD TURB BLW 5000FT TL042100 T 26 29 27 25 Q 1013 1009 1007 1005 TAF3

Parafield

TAF YPPF 032338Z 0400/0412 05005KT CAVOK FM040100 23010KT CAVOK FM041000 12008KT CAVOK RMK T 26 31 33 30 Q 1016 1012 1008 1007

Murray Bridge

TAF YMBD 040059Z 0402/0414 05009KT CAVOK RMK T 28 32 32 24 Q 1016 1011 1008 1008

Kingscote

TAF YKSC 032231Z 0400/0412 07012KT CAVOK RMK T 21 25 27 23 Q 1016 1013 1009 1007